sensor_id;sensor_type;location;lat;lon;timestamp;temperature;humidity
5128;DHT22;2582;48.770;9.190;2023-02-28T00:00:07;1.40;94.70
5128;DHT22;2582;48.770;9.190;2023-02-28T00:02:39;1.40;94.80
5128;DHT22;2582;48.770;9.190;2023-02-28T00:05:05;1.50;94.80
5128;DHT22;2582;48.770;9.190;2023-02-28T00:07:31;1.40;95.10
5128;DHT22;2582;48.770;9.190;2023-02-28T00:09:57;1.50;95.00
5128;DHT22;2582;48.770;9.190;2023-02-28T00:12:23;1.40;95.30
5128;DHT22;2582;48.770;9.190;2023-02-28T00:14:49;1.40;95.20
5128;DHT22;2582;48.770;9.190;2023-02-28T00:17:16;1.40;95.50
5128;DHT22;2582;48.770;9.190;2023-02-28T00:19:43;1.40;95.50
5128;DHT22;2582;48.770;9.190;2023-02-28T00:22:09;1.40;95.70
5128;DHT22;2582;48.770;9.190;2023-02-28T00:24:34;1.20;95.50
5128;DHT22;2582;48.770;9.190;2023-02-28T00:27:00;1.20;95.90
5128;DHT22;2582;48.770;9.190;2023-02-28T00:29:25;1.20;96.10
5128;DHT22;2582;48.770;9.190;2023-02-28T00:31:51;1.00;95.90
5128;DHT22;2582;48.770;9.190;2023-02-28T00:34:16;1.00;96.00
5128;DHT22;2582;48.770;9.190;2023-02-28T00:36:42;1.00;96.30
5128;DHT22;2582;48.770;9.190;2023-02-28T00:39:10;1.10;96.70
5128;DHT22;2582;48.770;9.190;2023-02-28T00:41:36;1.00;96.70
5128;DHT22;2582;48.770;9.190;2023-02-28T00:44:02;1.10;97.20
5128;DHT22;2582;48.770;9.190;2023-02-28T00:46:27;1.00;97.10
5128;DHT22;2582;48.770;9.190;2023-02-28T00:48:53;1.00;97.10
5128;DHT22;2582;48.770;9.190;2023-02-28T00:51:18;1.00;97.40
5128;DHT22;2582;48.770;9.190;2023-02-28T00:53:44;1.00;97.40
5128;DHT22;2582;48.770;9.190;2023-02-28T00:56:10;1.00;97.80
5128;DHT22;2582;48.770;9.190;2023-02-28T00:58:35;1.00;97.80
5128;DHT22;2582;48.770;9.190;2023-02-28T01:01:01;0.90;98.20
5128;DHT22;2582;48.770;9.190;2023-02-28T01:03:26;0.80;98.10
5128;DHT22;2582;48.770;9.190;2023-02-28T01:05:52;0.90;98.10
5128;DHT22;2582;48.770;9.190;2023-02-28T01:08:18;0.80;98.00
5128;DHT22;2582;48.770;9.190;2023-02-28T01:10:44;0.80;98.10
5128;DHT22;2582;48.770;9.190;2023-02-28T01:13:10;1.00;98.50
5128;DHT22;2582;48.770;9.190;2023-02-28T01:15:35;1.00;98.50
5128;DHT22;2582;48.770;9.190;2023-02-28T01:18:01;1.10;98.60
5128;DHT22;2582;48.770;9.190;2023-02-28T01:20:27;1.10;98.70
5128;DHT22;2582;48.770;9.190;2023-02-28T01:22:52;1.10;98.80
5128;DHT22;2582;48.770;9.190;2023-02-28T01:25:18;1.00;98.50
5128;DHT22;2582;48.770;9.190;2023-02-28T01:27:43;0.80;98.90
5128;DHT22;2582;48.770;9.190;2023-02-28T01:30:10;0.90;99.40
5128;DHT22;2582;48.770;9.190;2023-02-28T01:32:36;0.90;99.70
5128;DHT22;2582;48.770;9.190;2023-02-28T01:35:01;1.00;99.80
5128;DHT22;2582;48.770;9.190;2023-02-28T01:37:27;1.00;99.70
5128;DHT22;2582;48.770;9.190;2023-02-28T01:39:53;1.00;99.90
5128;DHT22;2582;48.770;9.190;2023-02-28T01:42:19;0.90;99.90
5128;DHT22;2582;48.770;9.190;2023-02-28T01:47:23;0.90;99.90
5128;DHT22;2582;48.770;9.190;2023-02-28T01:49:50;0.90;99.90
5128;DHT22;2582;48.770;9.190;2023-02-28T01:52:17;0.90;99.90
5128;DHT22;2582;48.770;9.190;2023-02-28T01:54:54;0.90;99.90
5128;DHT22;2582;48.770;9.190;2023-02-28T01:57:23;1.00;99.90
5128;DHT22;2582;48.770;9.190;2023-02-28T01:59:55;1.00;99.90
5128;DHT22;2582;48.770;9.190;2023-02-28T02:02:23;0.90;99.90
5128;DHT22;2582;48.770;9.190;2023-02-28T02:07:29;0.90;99.90
5128;DHT22;2582;48.770;9.190;2023-02-28T02:10:05;0.70;99.90
5128;DHT22;2582;48.770;9.190;2023-02-28T02:12:47;0.80;99.90
5128;DHT22;2582;48.770;9.190;2023-02-28T02:21:47;1.00;99.90
5128;DHT22;2582;48.770;9.190;2023-02-28T02:24:33;0.90;99.90
5128;DHT22;2582;48.770;9.190;2023-02-28T02:35:47;1.00;99.90
5128;DHT22;2582;48.770;9.190;2023-02-28T02:38:15;0.90;99.90
5128;DHT22;2582;48.770;9.190;2023-02-28T02:40:59;0.80;99.90
5128;DHT22;2582;48.770;9.190;2023-02-28T02:43:33;0.60;99.90
5128;DHT22;2582;48.770;9.190;2023-02-28T02:46:10;0.80;99.90
5128;DHT22;2582;48.770;9.190;2023-02-28T02:48:39;0.60;99.90
5128;DHT22;2582;48.770;9.190;2023-02-28T02:51:11;0.30;99.90
5128;DHT22;2582;48.770;9.190;2023-02-28T02:53:55;0.30;99.90
5128;DHT22;2582;48.770;9.190;2023-02-28T02:56:26;0.40;99.90
5128;DHT22;2582;48.770;9.190;2023-02-28T02:58:57;0.50;99.90
5128;DHT22;2582;48.770;9.190;2023-02-28T03:01:26;0.60;99.90
5128;DHT22;2582;48.770;9.190;2023-02-28T03:03:56;0.60;99.90
5128;DHT22;2582;48.770;9.190;2023-02-28T03:06:22;0.40;99.90
5128;DHT22;2582;48.770;9.190;2023-02-28T03:08:48;0.60;99.90
5128;DHT22;2582;48.770;9.190;2023-02-28T03:11:15;0.50;99.90
5128;DHT22;2582;48.770;9.190;2023-02-28T03:22:01;0.50;99.90
5128;DHT22;2582;48.770;9.190;2023-02-28T03:27:07;0.50;99.90
5128;DHT22;2582;48.770;9.190;2023-02-28T03:29:39;0.40;99.90
5128;DHT22;2582;48.770;9.190;2023-02-28T03:32:13;0.60;99.90
5128;DHT22;2582;48.770;9.190;2023-02-28T03:35:02;0.80;99.90
5128;DHT22;2582;48.770;9.190;2023-02-28T03:37:32;0.80;99.90
5128;DHT22;2582;48.770;9.190;2023-02-28T03:40:22;0.60;99.90
5128;DHT22;2582;48.770;9.190;2023-02-28T03:42:51;0.80;99.90
5128;DHT22;2582;48.770;9.190;2023-02-28T03:45:23;0.70;99.90
5128;DHT22;2582;48.770;9.190;2023-02-28T03:47:52;0.60;99.90
5128;DHT22;2582;48.770;9.190;2023-02-28T03:50:34;0.60;99.90
5128;DHT22;2582;48.770;9.190;2023-02-28T03:55:42;0.70;99.90
5128;DHT22;2582;48.770;9.190;2023-02-28T04:00:54;0.70;99.90
5128;DHT22;2582;48.770;9.190;2023-02-28T04:03:20;0.80;99.90
5128;DHT22;2582;48.770;9.190;2023-02-28T04:05:52;0.90;99.90
5128;DHT22;2582;48.770;9.190;2023-02-28T04:08:18;0.90;99.90
5128;DHT22;2582;48.770;9.190;2023-02-28T04:10:48;0.80;99.90
5128;DHT22;2582;48.770;9.190;2023-02-28T04:13:15;1.00;99.90
5128;DHT22;2582;48.770;9.190;2023-02-28T04:15:40;1.20;99.90
5128;DHT22;2582;48.770;9.190;2023-02-28T04:18:06;1.30;99.90
5128;DHT22;2582;48.770;9.190;2023-02-28T04:20:32;1.30;99.90
5128;DHT22;2582;48.770;9.190;2023-02-28T04:22:57;1.20;99.90
5128;DHT22;2582;48.770;9.190;2023-02-28T04:25:23;1.00;99.90
5128;DHT22;2582;48.770;9.190;2023-02-28T04:27:48;0.90;99.90
5128;DHT22;2582;48.770;9.190;2023-02-28T04:30:14;0.60;99.90
5128;DHT22;2582;48.770;9.190;2023-02-28T04:32:39;0.60;99.90
5128;DHT22;2582;48.770;9.190;2023-02-28T04:35:05;0.80;99.90
5128;DHT22;2582;48.770;9.190;2023-02-28T04:37:31;0.90;99.90
5128;DHT22;2582;48.770;9.190;2023-02-28T04:40:00;1.00;99.90
5128;DHT22;2582;48.770;9.190;2023-02-28T04:42:26;1.10;99.90
5128;DHT22;2582;48.770;9.190;2023-02-28T04:44:51;0.90;99.90
5128;DHT22;2582;48.770;9.190;2023-02-28T04:47:17;0.90;99.90
5128;DHT22;2582;48.770;9.190;2023-02-28T04:49:43;0.70;99.90
5128;DHT22;2582;48.770;9.190;2023-02-28T04:52:08;0.50;99.90
5128;DHT22;2582;48.770;9.190;2023-02-28T04:54:35;0.40;99.90
5128;DHT22;2582;48.770;9.190;2023-02-28T04:57:01;0.60;99.90
5128;DHT22;2582;48.770;9.190;2023-02-28T04:59:27;0.70;99.90
5128;DHT22;2582;48.770;9.190;2023-02-28T05:01:52;0.60;99.90
5128;DHT22;2582;48.770;9.190;2023-02-28T05:04:18;0.50;99.90
5128;DHT22;2582;48.770;9.190;2023-02-28T05:06:43;0.50;99.90
5128;DHT22;2582;48.770;9.190;2023-02-28T05:09:09;0.50;99.90
5128;DHT22;2582;48.770;9.190;2023-02-28T05:11:38;0.50;99.90
5128;DHT22;2582;48.770;9.190;2023-02-28T05:14:08;0.60;99.90
5128;DHT22;2582;48.770;9.190;2023-02-28T05:16:34;0.70;99.90
5128;DHT22;2582;48.770;9.190;2023-02-28T05:19:00;0.70;99.90
5128;DHT22;2582;48.770;9.190;2023-02-28T05:23:53;0.60;99.90
5128;DHT22;2582;48.770;9.190;2023-02-28T05:26:19;0.50;99.90
5128;DHT22;2582;48.770;9.190;2023-02-28T05:28:45;0.40;99.90
5128;DHT22;2582;48.770;9.190;2023-02-28T05:31:11;0.40;99.90
5128;DHT22;2582;48.770;9.190;2023-02-28T05:33:36;0.60;99.90
5128;DHT22;2582;48.770;9.190;2023-02-28T05:36:02;0.60;99.90
5128;DHT22;2582;48.770;9.190;2023-02-28T05:38:28;0.50;99.90
5128;DHT22;2582;48.770;9.190;2023-02-28T05:40:53;0.60;99.90
5128;DHT22;2582;48.770;9.190;2023-02-28T05:43:19;0.70;99.90
5128;DHT22;2582;48.770;9.190;2023-02-28T05:45:45;0.60;99.90
5128;DHT22;2582;48.770;9.190;2023-02-28T05:48:10;0.50;99.90
5128;DHT22;2582;48.770;9.190;2023-02-28T05:50:36;0.50;99.90
5128;DHT22;2582;48.770;9.190;2023-02-28T05:53:03;0.60;99.90
5128;DHT22;2582;48.770;9.190;2023-02-28T05:55:29;0.70;99.90
5128;DHT22;2582;48.770;9.190;2023-02-28T05:57:54;0.60;99.90
5128;DHT22;2582;48.770;9.190;2023-02-28T06:00:21;0.50;99.90
5128;DHT22;2582;48.770;9.190;2023-02-28T06:02:47;0.50;99.90
5128;DHT22;2582;48.770;9.190;2023-02-28T06:05:17;0.50;99.90
5128;DHT22;2582;48.770;9.190;2023-02-28T06:07:43;0.50;99.90
5128;DHT22;2582;48.770;9.190;2023-02-28T06:10:11;0.70;99.90
5128;DHT22;2582;48.770;9.190;2023-02-28T06:12:37;0.70;99.90
5128;DHT22;2582;48.770;9.190;2023-02-28T06:15:04;0.60;99.90
5128;DHT22;2582;48.770;9.190;2023-02-28T06:17:29;0.70;99.90
5128;DHT22;2582;48.770;9.190;2023-02-28T06:19:55;0.80;99.90
5128;DHT22;2582;48.770;9.190;2023-02-28T06:22:20;0.90;99.90
5128;DHT22;2582;48.770;9.190;2023-02-28T06:24:46;0.80;99.90
5128;DHT22;2582;48.770;9.190;2023-02-28T06:27:12;0.70;99.90
5128;DHT22;2582;48.770;9.190;2023-02-28T06:29:37;0.70;99.90
5128;DHT22;2582;48.770;9.190;2023-02-28T06:32:05;0.70;99.90
5128;DHT22;2582;48.770;9.190;2023-02-28T06:34:31;0.80;99.90
5128;DHT22;2582;48.770;9.190;2023-02-28T06:36:56;1.10;99.90
5128;DHT22;2582;48.770;9.190;2023-02-28T06:39:30;1.00;99.90
5128;DHT22;2582;48.770;9.190;2023-02-28T06:41:56;0.80;99.90
5128;DHT22;2582;48.770;9.190;2023-02-28T06:44:22;0.80;99.90
5128;DHT22;2582;48.770;9.190;2023-02-28T06:46:49;0.90;99.90
5128;DHT22;2582;48.770;9.190;2023-02-28T06:49:15;1.20;99.90
5128;DHT22;2582;48.770;9.190;2023-02-28T06:51:43;1.20;99.90
5128;DHT22;2582;48.770;9.190;2023-02-28T06:54:12;1.20;99.90
5128;DHT22;2582;48.770;9.190;2023-02-28T06:56:39;1.40;99.90
5128;DHT22;2582;48.770;9.190;2023-02-28T06:59:05;1.30;99.90
5128;DHT22;2582;48.770;9.190;2023-02-28T07:01:31;1.30;99.90
5128;DHT22;2582;48.770;9.190;2023-02-28T07:03:58;1.30;99.90
5128;DHT22;2582;48.770;9.190;2023-02-28T07:06:25;1.30;99.90
5128;DHT22;2582;48.770;9.190;2023-02-28T07:08:54;1.50;99.90
5128;DHT22;2582;48.770;9.190;2023-02-28T07:11:20;1.60;99.90
5128;DHT22;2582;48.770;9.190;2023-02-28T07:13:48;1.80;99.90
5128;DHT22;2582;48.770;9.190;2023-02-28T07:16:14;1.40;99.90
5128;DHT22;2582;48.770;9.190;2023-02-28T07:18:39;1.30;99.90
5128;DHT22;2582;48.770;9.190;2023-02-28T07:21:07;1.20;99.90
5128;DHT22;2582;48.770;9.190;2023-02-28T07:23:33;1.40;99.90
5128;DHT22;2582;48.770;9.190;2023-02-28T07:25:58;1.50;99.90
5128;DHT22;2582;48.770;9.190;2023-02-28T07:28:24;1.70;99.90
5128;DHT22;2582;48.770;9.190;2023-02-28T07:30:50;1.80;99.90
5128;DHT22;2582;48.770;9.190;2023-02-28T07:33:16;1.80;99.90
5128;DHT22;2582;48.770;9.190;2023-02-28T07:35:41;1.70;99.90
5128;DHT22;2582;48.770;9.190;2023-02-28T07:38:07;1.60;99.90
5128;DHT22;2582;48.770;9.190;2023-02-28T07:40:34;1.50;99.90
5128;DHT22;2582;48.770;9.190;2023-02-28T07:43:00;1.40;99.90
5128;DHT22;2582;48.770;9.190;2023-02-28T07:45:27;1.60;99.90
5128;DHT22;2582;48.770;9.190;2023-02-28T07:47:54;1.40;99.90
5128;DHT22;2582;48.770;9.190;2023-02-28T07:50:19;1.50;99.90
5128;DHT22;2582;48.770;9.190;2023-02-28T07:52:45;1.50;99.90
5128;DHT22;2582;48.770;9.190;2023-02-28T07:55:10;1.60;99.90
5128;DHT22;2582;48.770;9.190;2023-02-28T07:57:36;1.60;99.90
5128;DHT22;2582;48.770;9.190;2023-02-28T08:00:05;1.80;99.90
5128;DHT22;2582;48.770;9.190;2023-02-28T08:02:30;2.10;99.90
5128;DHT22;2582;48.770;9.190;2023-02-28T08:04:56;2.10;99.90
5128;DHT22;2582;48.770;9.190;2023-02-28T08:07:21;2.00;99.90
5128;DHT22;2582;48.770;9.190;2023-02-28T08:09:47;1.80;99.90
5128;DHT22;2582;48.770;9.190;2023-02-28T08:12:13;1.70;99.90
5128;DHT22;2582;48.770;9.190;2023-02-28T08:14:38;1.70;99.90
5128;DHT22;2582;48.770;9.190;2023-02-28T08:17:05;1.50;99.90
5128;DHT22;2582;48.770;9.190;2023-02-28T08:19:31;1.50;99.90
5128;DHT22;2582;48.770;9.190;2023-02-28T08:21:57;1.60;99.90
5128;DHT22;2582;48.770;9.190;2023-02-28T08:24:23;1.60;99.90
5128;DHT22;2582;48.770;9.190;2023-02-28T08:26:49;1.60;99.90
5128;DHT22;2582;48.770;9.190;2023-02-28T08:29:15;1.80;99.90
5128;DHT22;2582;48.770;9.190;2023-02-28T08:31:41;1.80;99.90
5128;DHT22;2582;48.770;9.190;2023-02-28T08:34:11;1.70;99.90
5128;DHT22;2582;48.770;9.190;2023-02-28T08:36:37;1.60;99.90
5128;DHT22;2582;48.770;9.190;2023-02-28T08:39:03;1.40;99.90
5128;DHT22;2582;48.770;9.190;2023-02-28T08:41:29;1.50;99.90
5128;DHT22;2582;48.770;9.190;2023-02-28T08:43:54;1.40;99.90
5128;DHT22;2582;48.770;9.190;2023-02-28T08:46:20;1.40;99.90
5128;DHT22;2582;48.770;9.190;2023-02-28T08:48:46;1.50;99.90
5128;DHT22;2582;48.770;9.190;2023-02-28T08:51:14;1.70;99.90
5128;DHT22;2582;48.770;9.190;2023-02-28T08:53:43;1.70;99.90
5128;DHT22;2582;48.770;9.190;2023-02-28T08:56:13;1.70;99.90
5128;DHT22;2582;48.770;9.190;2023-02-28T08:58:39;1.60;99.90
5128;DHT22;2582;48.770;9.190;2023-02-28T09:01:29;1.60;99.90
5128;DHT22;2582;48.770;9.190;2023-02-28T09:03:55;1.70;99.90
5128;DHT22;2582;48.770;9.190;2023-02-28T09:06:23;1.80;99.90
5128;DHT22;2582;48.770;9.190;2023-02-28T09:08:48;1.90;99.90
5128;DHT22;2582;48.770;9.190;2023-02-28T09:11:14;2.00;99.90
5128;DHT22;2582;48.770;9.190;2023-02-28T09:13:40;2.00;99.90
5128;DHT22;2582;48.770;9.190;2023-02-28T09:16:08;2.10;99.90
5128;DHT22;2582;48.770;9.190;2023-02-28T09:18:35;2.30;99.90
5128;DHT22;2582;48.770;9.190;2023-02-28T09:21:05;2.40;99.90
5128;DHT22;2582;48.770;9.190;2023-02-28T09:23:30;2.20;99.90
5128;DHT22;2582;48.770;9.190;2023-02-28T09:25:56;2.10;99.90
5128;DHT22;2582;48.770;9.190;2023-02-28T09:28:22;1.90;99.90
5128;DHT22;2582;48.770;9.190;2023-02-28T09:30:51;1.90;99.90
5128;DHT22;2582;48.770;9.190;2023-02-28T09:33:18;1.90;99.90
5128;DHT22;2582;48.770;9.190;2023-02-28T09:35:46;2.00;99.90
5128;DHT22;2582;48.770;9.190;2023-02-28T09:38:11;2.20;99.90
5128;DHT22;2582;48.770;9.190;2023-02-28T09:40:45;2.40;99.90
5128;DHT22;2582;48.770;9.190;2023-02-28T09:43:14;2.80;99.90
5128;DHT22;2582;48.770;9.190;2023-02-28T09:45:43;2.60;99.90
5128;DHT22;2582;48.770;9.190;2023-02-28T09:48:21;2.70;99.90
5128;DHT22;2582;48.770;9.190;2023-02-28T09:50:51;2.90;99.90
5128;DHT22;2582;48.770;9.190;2023-02-28T09:53:30;3.10;99.90
5128;DHT22;2582;48.770;9.190;2023-02-28T09:56:20;3.30;99.90
5128;DHT22;2582;48.770;9.190;2023-02-28T09:59:07;3.00;99.90
5128;DHT22;2582;48.770;9.190;2023-02-28T10:02:04;3.00;99.90
5128;DHT22;2582;48.770;9.190;2023-02-28T10:07:41;2.90;99.90
5128;DHT22;2582;48.770;9.190;2023-02-28T10:10:22;2.90;99.90
5128;DHT22;2582;48.770;9.190;2023-02-28T10:12:52;3.00;99.90
5128;DHT22;2582;48.770;9.190;2023-02-28T10:15:18;3.20;99.90
5128;DHT22;2582;48.770;9.190;2023-02-28T10:17:49;3.20;99.90
5128;DHT22;2582;48.770;9.190;2023-02-28T10:20:20;3.20;99.90
5128;DHT22;2582;48.770;9.190;2023-02-28T10:23:03;3.10;99.90
5128;DHT22;2582;48.770;9.190;2023-02-28T10:25:35;2.90;99.90
5128;DHT22;2582;48.770;9.190;2023-02-28T10:28:12;2.90;99.90
5128;DHT22;2582;48.770;9.190;2023-02-28T10:30:42;3.00;99.90
5128;DHT22;2582;48.770;9.190;2023-02-28T10:33:19;3.10;99.90
5128;DHT22;2582;48.770;9.190;2023-02-28T10:35:45;3.10;99.90
5128;DHT22;2582;48.770;9.190;2023-02-28T10:38:16;3.20;99.90
5128;DHT22;2582;48.770;9.190;2023-02-28T10:40:42;3.70;99.90
5128;DHT22;2582;48.770;9.190;2023-02-28T10:45:56;3.90;99.90
5128;DHT22;2582;48.770;9.190;2023-02-28T10:55:40;3.70;99.90
5128;DHT22;2582;48.770;9.190;2023-02-28T11:01:36;3.90;99.90
5128;DHT22;2582;48.770;9.190;2023-02-28T11:04:16;3.70;99.90
5128;DHT22;2582;48.770;9.190;2023-02-28T11:06:42;3.70;99.90
5128;DHT22;2582;48.770;9.190;2023-02-28T11:11:52;4.30;99.90
5128;DHT22;2582;48.770;9.190;2023-02-28T11:14:26;4.30;99.90
5128;DHT22;2582;48.770;9.190;2023-02-28T11:16:53;4.20;99.90
5128;DHT22;2582;48.770;9.190;2023-02-28T11:19:25;4.10;99.90
5128;DHT22;2582;48.770;9.190;2023-02-28T11:21:57;4.20;99.90
5128;DHT22;2582;48.770;9.190;2023-02-28T11:24:43;4.90;99.90
5128;DHT22;2582;48.770;9.190;2023-02-28T11:29:57;7.90;95.20
5128;DHT22;2582;48.770;9.190;2023-02-28T11:32:28;8.10;93.50
5128;DHT22;2582;48.770;9.190;2023-02-28T11:37:41;9.90;90.40
5128;DHT22;2582;48.770;9.190;2023-02-28T11:43:06;8.90;89.30
5128;DHT22;2582;48.770;9.190;2023-02-28T11:45:53;8.30;89.80
5128;DHT22;2582;48.770;9.190;2023-02-28T11:48:43;7.10;90.30
5128;DHT22;2582;48.770;9.190;2023-02-28T11:51:34;6.60;92.00
5128;DHT22;2582;48.770;9.190;2023-02-28T11:57:25;6.90;92.20
5128;DHT22;2582;48.770;9.190;2023-02-28T12:02:35;7.70;91.40
5128;DHT22;2582;48.770;9.190;2023-02-28T12:07:55;9.10;89.60
5128;DHT22;2582;48.770;9.190;2023-02-28T12:10:27;9.60;86.40
5128;DHT22;2582;48.770;9.190;2023-02-28T12:21:24;8.90;86.70
5128;DHT22;2582;48.770;9.190;2023-02-28T12:24:01;10.60;82.00
5128;DHT22;2582;48.770;9.190;2023-02-28T12:26:43;11.50;77.30
5128;DHT22;2582;48.770;9.190;2023-02-28T12:32:07;10.30;76.50
5128;DHT22;2582;48.770;9.190;2023-02-28T12:34:41;9.70;79.60
5128;DHT22;2582;48.770;9.190;2023-02-28T12:37:55;8.60;81.30
5128;DHT22;2582;48.770;9.190;2023-02-28T12:40:13;7.30;84.50
5128;DHT22;2582;48.770;9.190;2023-02-28T12:42:44;7.30;88.00
5128;DHT22;2582;48.770;9.190;2023-02-28T12:45:20;8.90;85.50
5128;DHT22;2582;48.770;9.190;2023-02-28T12:47:56;9.70;82.50
5128;DHT22;2582;48.770;9.190;2023-02-28T12:50:24;10.70;78.50
5128;DHT22;2582;48.770;9.190;2023-02-28T12:53:31;12.20;76.00
5128;DHT22;2582;48.770;9.190;2023-02-28T12:56:24;12.30;71.00
5128;DHT22;2582;48.770;9.190;2023-02-28T12:58:58;11.90;70.80
5128;DHT22;2582;48.770;9.190;2023-02-28T13:04:33;11.20;72.80
5128;DHT22;2582;48.770;9.190;2023-02-28T13:10:06;11.60;72.10
5128;DHT22;2582;48.770;9.190;2023-02-28T13:12:34;13.00;68.70
5128;DHT22;2582;48.770;9.190;2023-02-28T13:15:07;12.80;67.10
5128;DHT22;2582;48.770;9.190;2023-02-28T13:17:39;13.10;65.70
5128;DHT22;2582;48.770;9.190;2023-02-28T13:20:16;11.90;67.70
5128;DHT22;2582;48.770;9.190;2023-02-28T13:22:44;12.20;67.50
5128;DHT22;2582;48.770;9.190;2023-02-28T13:27:57;11.80;67.70
5128;DHT22;2582;48.770;9.190;2023-02-28T13:33:33;12.90;65.70
5128;DHT22;2582;48.770;9.190;2023-02-28T13:36:09;14.00;63.70
5128;DHT22;2582;48.770;9.190;2023-02-28T13:38:38;14.60;61.30
5128;DHT22;2582;48.770;9.190;2023-02-28T13:41:40;15.20;60.10
5128;DHT22;2582;48.770;9.190;2023-02-28T13:44:22;13.70;61.20
5128;DHT22;2582;48.770;9.190;2023-02-28T13:51:53;12.80;63.20
5128;DHT22;2582;48.770;9.190;2023-02-28T13:54:50;11.80;63.20
5128;DHT22;2582;48.770;9.190;2023-02-28T13:57:42;11.50;65.40
5128;DHT22;2582;48.770;9.190;2023-02-28T14:00:23;11.40;66.40
5128;DHT22;2582;48.770;9.190;2023-02-28T14:05:45;10.90;65.10
5128;DHT22;2582;48.770;9.190;2023-02-28T14:08:21;11.70;66.80
5128;DHT22;2582;48.770;9.190;2023-02-28T14:10:50;13.30;63.00
5128;DHT22;2582;48.770;9.190;2023-02-28T14:13:44;14.40;61.00
5128;DHT22;2582;48.770;9.190;2023-02-28T14:16:15;15.40;58.90
5128;DHT22;2582;48.770;9.190;2023-02-28T14:18:50;14.60;59.10
5128;DHT22;2582;48.770;9.190;2023-02-28T14:26:37;12.10;61.90
5128;DHT22;2582;48.770;9.190;2023-02-28T14:31:58;9.30;68.60
5128;DHT22;2582;48.770;9.190;2023-02-28T14:37:15;8.60;72.20
5128;DHT22;2582;48.770;9.190;2023-02-28T14:39:43;8.60;73.50
5128;DHT22;2582;48.770;9.190;2023-02-28T14:42:31;8.90;73.20
5128;DHT22;2582;48.770;9.190;2023-02-28T14:44:57;8.80;73.60
5128;DHT22;2582;48.770;9.190;2023-02-28T14:47:27;8.10;74.30
5128;DHT22;2582;48.770;9.190;2023-02-28T14:49:54;7.60;76.40
5128;DHT22;2582;48.770;9.190;2023-02-28T14:52:25;7.90;76.50
5128;DHT22;2582;48.770;9.190;2023-02-28T14:55:00;7.70;77.10
5128;DHT22;2582;48.770;9.190;2023-02-28T14:57:32;8.00;77.50
5128;DHT22;2582;48.770;9.190;2023-02-28T14:59:59;7.90;77.40
5128;DHT22;2582;48.770;9.190;2023-02-28T15:02:26;7.70;77.60
5128;DHT22;2582;48.770;9.190;2023-02-28T15:05:00;8.00;78.00
5128;DHT22;2582;48.770;9.190;2023-02-28T15:07:26;7.90;77.40
5128;DHT22;2582;48.770;9.190;2023-02-28T15:10:18;8.10;78.10
5128;DHT22;2582;48.770;9.190;2023-02-28T15:15:24;7.50;78.60
5128;DHT22;2582;48.770;9.190;2023-02-28T15:17:54;7.60;79.70
5128;DHT22;2582;48.770;9.190;2023-02-28T15:20:23;7.80;79.60
5128;DHT22;2582;48.770;9.190;2023-02-28T15:22:51;7.40;78.90
5128;DHT22;2582;48.770;9.190;2023-02-28T15:25:20;7.10;80.30
5128;DHT22;2582;48.770;9.190;2023-02-28T15:27:53;7.10;81.10
5128;DHT22;2582;48.770;9.190;2023-02-28T15:30:27;7.40;81.00
5128;DHT22;2582;48.770;9.190;2023-02-28T15:35:37;7.90;80.00
5128;DHT22;2582;48.770;9.190;2023-02-28T15:38:18;7.80;80.20
5128;DHT22;2582;48.770;9.190;2023-02-28T15:40:54;7.50;80.20
5128;DHT22;2582;48.770;9.190;2023-02-28T15:45:52;7.60;81.70
5128;DHT22;2582;48.770;9.190;2023-02-28T15:48:29;7.80;80.70
5128;DHT22;2582;48.770;9.190;2023-02-28T15:51:01;7.80;80.40
5128;DHT22;2582;48.770;9.190;2023-02-28T15:53:32;7.80;80.60
5128;DHT22;2582;48.770;9.190;2023-02-28T15:56:04;7.90;80.80
5128;DHT22;2582;48.770;9.190;2023-02-28T15:58:32;7.70;80.70
5128;DHT22;2582;48.770;9.190;2023-02-28T16:01:27;7.80;81.30
5128;DHT22;2582;48.770;9.190;2023-02-28T16:03:59;7.60;81.70
5128;DHT22;2582;48.770;9.190;2023-02-28T16:06:45;7.60;81.70
5128;DHT22;2582;48.770;9.190;2023-02-28T16:09:13;7.70;82.30
5128;DHT22;2582;48.770;9.190;2023-02-28T16:11:48;7.80;82.40
5128;DHT22;2582;48.770;9.190;2023-02-28T16:14:25;7.90;82.00
5128;DHT22;2582;48.770;9.190;2023-02-28T16:16:54;7.80;81.90
5128;DHT22;2582;48.770;9.190;2023-02-28T16:19:20;7.60;82.70
5128;DHT22;2582;48.770;9.190;2023-02-28T16:21:47;7.40;83.10
5128;DHT22;2582;48.770;9.190;2023-02-28T16:24:13;7.30;83.80
5128;DHT22;2582;48.770;9.190;2023-02-28T16:26:44;7.30;84.30
5128;DHT22;2582;48.770;9.190;2023-02-28T16:29:16;7.40;84.40
5128;DHT22;2582;48.770;9.190;2023-02-28T16:31:43;7.50;83.60
5128;DHT22;2582;48.770;9.190;2023-02-28T16:34:09;7.20;83.70
5128;DHT22;2582;48.770;9.190;2023-02-28T16:36:34;7.00;84.70
5128;DHT22;2582;48.770;9.190;2023-02-28T16:39:00;6.70;85.10
5128;DHT22;2582;48.770;9.190;2023-02-28T16:41:28;6.70;86.00
5128;DHT22;2582;48.770;9.190;2023-02-28T16:43:55;6.60;86.10
5128;DHT22;2582;48.770;9.190;2023-02-28T16:46:29;6.60;86.80
5128;DHT22;2582;48.770;9.190;2023-02-28T16:48:55;6.60;87.00
5128;DHT22;2582;48.770;9.190;2023-02-28T16:51:21;6.30;87.00
5128;DHT22;2582;48.770;9.190;2023-02-28T16:53:47;6.30;87.80
5128;DHT22;2582;48.770;9.190;2023-02-28T16:56:18;6.50;87.60
5128;DHT22;2582;48.770;9.190;2023-02-28T16:58:45;6.60;87.70
5128;DHT22;2582;48.770;9.190;2023-02-28T17:01:11;6.50;87.60
5128;DHT22;2582;48.770;9.190;2023-02-28T17:03:36;6.30;88.30
5128;DHT22;2582;48.770;9.190;2023-02-28T17:06:03;6.10;88.70
5128;DHT22;2582;48.770;9.190;2023-02-28T17:08:30;6.30;89.30
5128;DHT22;2582;48.770;9.190;2023-02-28T17:10:57;6.20;89.20
5128;DHT22;2582;48.770;9.190;2023-02-28T17:13:23;6.20;89.60
5128;DHT22;2582;48.770;9.190;2023-02-28T17:15:49;6.20;89.70
5128;DHT22;2582;48.770;9.190;2023-02-28T17:18:17;6.40;90.20
5128;DHT22;2582;48.770;9.190;2023-02-28T17:20:45;6.50;90.20
5128;DHT22;2582;48.770;9.190;2023-02-28T17:23:11;6.40;90.20
5128;DHT22;2582;48.770;9.190;2023-02-28T17:25:36;6.30;90.60
5128;DHT22;2582;48.770;9.190;2023-02-28T17:28:02;6.10;90.70
5128;DHT22;2582;48.770;9.190;2023-02-28T17:30:28;6.10;91.00
5128;DHT22;2582;48.770;9.190;2023-02-28T17:32:54;6.20;91.30
5128;DHT22;2582;48.770;9.190;2023-02-28T17:35:20;6.20;91.40
5128;DHT22;2582;48.770;9.190;2023-02-28T17:37:46;6.00;91.60
5128;DHT22;2582;48.770;9.190;2023-02-28T17:40:16;5.90;91.80
5128;DHT22;2582;48.770;9.190;2023-02-28T17:42:43;5.80;92.30
5128;DHT22;2582;48.770;9.190;2023-02-28T17:45:08;5.70;92.80
5128;DHT22;2582;48.770;9.190;2023-02-28T17:47:34;5.70;93.10
5128;DHT22;2582;48.770;9.190;2023-02-28T17:50:00;5.60;93.40
5128;DHT22;2582;48.770;9.190;2023-02-28T17:52:25;5.70;93.40
5128;DHT22;2582;48.770;9.190;2023-02-28T17:54:51;5.60;93.70
5128;DHT22;2582;48.770;9.190;2023-02-28T17:57:16;5.50;94.00
5128;DHT22;2582;48.770;9.190;2023-02-28T17:59:42;5.50;94.30
5128;DHT22;2582;48.770;9.190;2023-02-28T18:02:11;5.50;94.60
5128;DHT22;2582;48.770;9.190;2023-02-28T18:04:37;5.40;94.90
5128;DHT22;2582;48.770;9.190;2023-02-28T18:07:02;5.30;95.20
5128;DHT22;2582;48.770;9.190;2023-02-28T18:09:28;5.20;95.40
5128;DHT22;2582;48.770;9.190;2023-02-28T18:11:55;5.10;96.10
5128;DHT22;2582;48.770;9.190;2023-02-28T18:14:23;5.00;96.40
5128;DHT22;2582;48.770;9.190;2023-02-28T18:16:50;5.00;96.80
5128;DHT22;2582;48.770;9.190;2023-02-28T18:19:16;4.80;97.30
5128;DHT22;2582;48.770;9.190;2023-02-28T18:21:47;4.70;98.00
5128;DHT22;2582;48.770;9.190;2023-02-28T18:24:14;4.70;98.20
5128;DHT22;2582;48.770;9.190;2023-02-28T18:26:40;4.70;98.60
5128;DHT22;2582;48.770;9.190;2023-02-28T18:29:07;4.60;99.00
5128;DHT22;2582;48.770;9.190;2023-02-28T18:31:33;4.50;99.50
5128;DHT22;2582;48.770;9.190;2023-02-28T18:33:59;4.30;99.90
5128;DHT22;2582;48.770;9.190;2023-02-28T18:36:26;4.30;99.90